Nearby METAR Reports

 

KHFD - Hartford/Brainar, Connecticut, USA
Distance from station: ESE 5mi, 8km
Updated: Sun, 25-Aug-2019 1:53pm EDT
Overcast
Overcast
 Wind from ENE
Wind: ENE 10 mph , 17 km/h
Temperature: 72°F , 22°C
Dew Point: 54°F , 12°C
Humidity: 53%
Barometer: 30.28 inHg , 1025.4 hPa
Clouds: Overcast
Visibility: 10 miles , 16 km
Cloud details: Overcast 4700 ft
2019/08/25 17:53 KHFD 251753Z 07009KT 10SM OVC047 22/12 A3028 RMK AO2 SLP253 T02170117 10233 20172 56006
KBDL - Windsor Locks, Connecticut, USA
Distance from station: NNE 12mi, 20km
Updated: Sun, 25-Aug-2019 1:51pm EDT
Mostly cloudy
Mostly cloudy
 Wind from ENE
Wind: ENE 8 mph , 13 km/h
Temperature: 73°F , 23°C
Dew Point: 48°F , 9°C
Humidity: 41%
Barometer: 30.29 inHg , 1025.7 hPa
Clouds: Mostly cloudy
Visibility: 10 miles , 16 km
Cloud details: Few Clouds 4200 ft
Mostly cloudy 5500 ft
2019/08/25 17:51 KBDL 251751Z 06007KT 10SM FEW042 BKN055 23/09 A3029 RMK AO2 SLP256 T02280094 10244 20178 58008
 
KMMK - Meriden, Connecticut, USA
Distance from station: SSW 18mi, 28km
Updated: Sun, 25-Aug-2019 1:53pm EDT
Overcast
Overcast
 Wind from NE
Wind: NE 13 mph , 20 km/h, Gust: 17 mph , 28 km/h
Temperature: 72°F , 22°C
Dew Point: 50°F , 10°C
Humidity: 47%
Barometer: 30.28 inHg , 1025.4 hPa
Clouds: Overcast
Visibility: 10 miles , 16 km
Cloud details: Overcast 5000 ft
2019/08/25 17:53 KMMK 251753Z AUTO 05011G15KT 10SM OVC050 22/10 A3028 RMK AO2 SLP251 T02170100 10233 20178 56006
KBAF - Westfield, Massachusetts, USA
Distance from station: N 28mi, 45km
Updated: Sun, 25-Aug-2019 1:53pm EDT
Partly cloudy
Partly cloudy
 Wind from ENE
Wind: ENE 8 mph , 13 km/h
Temperature: 73°F , 23°C
Dew Point: 48°F , 9°C
Humidity: 41%
Barometer: 30.30 inHg , 1026.1 hPa
Clouds: Partly cloudy
Visibility: 10 miles , 16 km
Cloud details: Partly cloudy 5500 ft
2019/08/25 17:53 KBAF 251753Z 06007KT 10SM SCT055 23/09 A3030 RMK AO2 SLP258 T02330094 10239 20161 58009
 
KIJD - Willimantic, Connecticut, USA
Distance from station: E 29mi, 46km
Updated: Sun, 25-Aug-2019 1:52pm EDT
Overcast
Overcast
 Wind from NE
Wind: NE 10 mph , 17 km/h
Temperature: 68°F , 20°C
Dew Point: 55°F , 13°C
Humidity: 64%
Barometer: 30.31 inHg , 1026.4 hPa
Clouds: Overcast
Visibility: 10 miles , 16 km
Cloud details: Overcast 3100 ft
2019/08/25 17:52 KIJD 251752Z AUTO 04009KT 10SM OVC031 20/13 A3031 RMK AO2 SLP262 T02000128 10217 20161 58000
KOXC - Oxford/Waterbury, Connecticut, USA
Distance from station: SW 29mi, 46km
Updated: Sun, 25-Aug-2019 1:51pm EDT
Overcast
Overcast
 Wind from E
Wind: E 8 mph , 13 km/h
Temperature: 72°F , 22°C
Dew Point: 54°F , 12°C
Humidity: 53%
Barometer: 30.29 inHg , 1025.7 hPa
Clouds: Overcast
Visibility: 10 miles , 16 km
Cloud details: Mostly cloudy 4700 ft
Overcast 6500 ft
2019/08/25 17:51 KOXC 251751Z 08007KT 10SM BKN047 OVC065 22/12 A3029 RMK AO2 SLP267 T02170117 10228 20161 58006
 
KSNC - Chester, Connecticut, USA
Distance from station: SSE 29mi, 47km
Updated: Sun, 25-Aug-2019 1:55pm EDT
Few Clouds
Few Clouds
 Wind from NE
Wind: NE 15 mph , 24 km/h, Gust: 22 mph , 35 km/h
Temperature: 70°F , 21°C
Dew Point: 59°F , 15°C
Humidity: 69%
Barometer: 30.28 inHg , 1025.4 hPa
Clouds: Few Clouds
Visibility: 10 miles , 16 km
Cloud details: Few Clouds 5000 ft
Few Clouds 6500 ft
Few Clouds 8500 ft
2019/08/25 17:55 KSNC 251755Z AUTO 04013G19KT 10SM FEW050 FEW065 FEW085 21/15 A3028 RMK AO2
KCEF - Chicopee/Westove, Massachusetts, USA
Distance from station: NNE 32mi, 52km
Updated: Sun, 25-Aug-2019 1:56pm EDT
Few Clouds
Few Clouds
 Wind from E
Wind: E 9 mph , 15 km/h
Temperature: 73°F , 23°C
Dew Point: 50°F , 10°C
Humidity: 44%
Barometer: 30.29 inHg , 1025.7 hPa
Clouds: Few Clouds
Visibility: 10 miles , 16 km
Cloud details: Few Clouds 4200 ft
2019/08/25 17:56 KCEF 251756Z 08008KT 10SM FEW042 23/10 A3029 RMK AO2A SLP263 T02300104 10230 20165 57009
 
KHVN - New Haven/Tweed, Connecticut, USA
Distance from station: S 35mi, 56km
Updated: Sun, 25-Aug-2019 1:53pm EDT
Overcast
Overcast
 Wind from E
Wind: E 9 mph , 15 km/h
Temperature: 75°F , 24°C
Dew Point: 55°F , 13°C
Humidity: 50%
Barometer: 30.27 inHg , 1025.1 hPa
Clouds: Overcast
Visibility: 10 miles , 16 km
Cloud details: Partly cloudy 4700 ft
Overcast 6000 ft
2019/08/25 17:53 KHVN 251753Z 09008KT 10SM SCT047 OVC060 24/13 A3027 RMK AO2 SLP249 T02390128 10250 20183 58004
KBDR - Bridgeport, Connecticut, USA
Distance from station: SSW 46mi, 74km
Updated: Sun, 25-Aug-2019 1:52pm EDT
Overcast
Overcast
 Wind from E
Wind: E 15 mph , 24 km/h
Temperature: 73°F , 23°C
Dew Point: 55°F , 13°C
Humidity: 53%
Barometer: 30.26 inHg , 1024.7 hPa
Clouds: Overcast
Visibility: 10 miles , 16 km
Cloud details: Overcast 6000 ft
2019/08/25 17:52 KBDR 251752Z 10013KT 10SM OVC060 23/13 A3026 RMK AO2 SLP247 T02330128 10244 20189 58007
 
KGON - Groton/New Londo, Connecticut, USA
Distance from station: SE 46mi, 75km
Updated: Sun, 25-Aug-2019 1:56pm EDT
Mostly cloudy
Mostly cloudy
 Wind from NE
Wind: NE 22 mph , 35 km/h, Gust: 28 mph , 44 km/h
Temperature: 73°F , 23°C
Dew Point: 57°F , 14°C
Humidity: 57%
Barometer: 30.26 inHg , 1024.7 hPa
Clouds: Mostly cloudy
Visibility: 10 miles , 16 km
Cloud details: Partly cloudy 2800 ft
Mostly cloudy 3400 ft
2019/08/25 17:56 KGON 251756Z 05019G24KT 10SM SCT028 BKN034 23/14 A3026 RMK AO2 SLP245 6//// T02280144 10233 20178 58007 $
KDXR - Danbury, Connecticut, USA
Distance from station: SW 47mi, 76km
Updated: Sun, 25-Aug-2019 1:53pm EDT
Mostly cloudy
Mostly cloudy
 Wind from ENE
Wind: ENE 14 mph , 22 km/h
Temperature: 73°F , 23°C
Dew Point: 52°F , 11°C
Humidity: 47%
Barometer: 30.28 inHg , 1025.4 hPa
Clouds: Mostly cloudy
Visibility: 10 miles , 16 km
Cloud details: Mostly cloudy 5100 ft
Mostly cloudy 6000 ft
2019/08/25 17:53 KDXR 251753Z 07012KT 10SM BKN051 BKN060 23/11 A3028 RMK AO2 SLP251 T02280106 10228 20167 58009
 
KPSF - Pittsfield, Massachusetts, USA
Distance from station: NNW 54mi, 87km
Updated: Sun, 25-Aug-2019 1:54pm EDT
Clear
Clear
 Wind from ENE
Wind: ENE 10 mph , 17 km/h, Gust: 17 mph , 28 km/h
Temperature: 72°F , 22°C
Dew Point: 48°F , 9°C
Humidity: 44%
Barometer: 30.30 inHg , 1026.1 hPa
Clouds: Clear
Visibility: 10 miles , 16 km
2019/08/25 17:54 KPSF 251754Z AUTO 07009G15KT 10SM CLR 22/09 A3030 RMK AO2 SLP240 T02170094 10222 20156 58012
KWST - Westerly, Rhode Island, USA
Distance from station: ESE 56mi, 91km
Updated: Sun, 25-Aug-2019 1:53pm EDT
Mostly cloudy
Mostly cloudy
 Wind from NE
Wind: NE 12 mph , 19 km/h
Temperature: 72°F , 22°C
Dew Point: 61°F , 16°C
Humidity: 69%
Barometer: 30.27 inHg , 1025.1 hPa
Clouds: Mostly cloudy
Visibility: 10 miles , 16 km
Cloud details: Partly cloudy 2500 ft
Partly cloudy 3000 ft
Mostly cloudy 3600 ft
2019/08/25 17:53 KWST 251753Z AUTO 04010KT 10SM SCT025 SCT030 BKN036 22/16 A3027 RMK AO2 SLP250 60000 T02220156 10233 20183 58006
 
KORH - Worcester, Massachusetts, USA
Distance from station: NE 57mi, 92km
Updated: Sun, 25-Aug-2019 1:54pm EDT
Overcast
Overcast
 Wind from NE
Wind: NE 10 mph , 17 km/h
Temperature: 64°F , 18°C
Dew Point: 54°F , 12°C
Humidity: 68%
Barometer: 30.33 inHg , 1027.1 hPa
Clouds: Overcast
Visibility: 10 miles , 16 km
Cloud details: Overcast 3300 ft
2019/08/25 17:54 KORH 251754Z 04009KT 10SM OVC033 18/12 A3033 RMK AO2 SLP272 T01780117 10183 20144 58005
KPOU - Poughkeepsie, New York, USA
Distance from station: W 60mi, 96km
Updated: Sun, 25-Aug-2019 1:53pm EDT
Mostly cloudy
Mostly cloudy
 Wind from N
Wind: N 7 mph , 11 km/h
Temperature: 73°F , 23°C
Dew Point: 55°F , 13°C
Humidity: 53%
Barometer: 30.26 inHg , 1024.7 hPa
Clouds: Mostly cloudy
Visibility: 10 miles , 16 km
Cloud details: Few Clouds 4700 ft
Mostly cloudy 6500 ft
2019/08/25 17:53 KPOU 251753Z 01006KT 10SM FEW047 BKN065 23/13 A3026 RMK AO2 SLP243 T02330133 10233 20172 58013
 
KORE - Orange, Massachusetts, USA
Distance from station: NNE 60mi, 97km
Updated: Sun, 25-Aug-2019 1:52pm EDT
Few Clouds
Few Clouds
 Wind from NNE
Wind: NNE 9 mph , 15 km/h
Temperature: 73°F , 23°C
Dew Point: 46°F , 8°C
Humidity: 38%
Barometer: 30.33 inHg , 1027.1 hPa
Clouds: Few Clouds
Visibility: 10 miles , 16 km
Cloud details: Few Clouds 4800 ft
2019/08/25 17:52 KORE 251752Z AUTO 03008KT 10SM FEW048 23/08 A3033 RMK AO2 SLP270 T02280078 10233 20161 57010
KHTO - East Hampton, New York, USA
Distance from station: SSE 62mi, 99km
Updated: Sun, 25-Aug-2019 1:55pm EDT
Overcast
Overcast
 Wind from NE
Wind: NE 9 mph , 15 km/h, Gust: 21 mph , 33 km/h
Temperature: 68°F , 20°C
Dew Point: 59°F , 15°C
Humidity: 73%
Barometer: 30.25 inHg , 1024.4 hPa
Clouds: Overcast
Visibility: 10 miles , 16 km
Cloud details: Mostly cloudy 2000 ft
Overcast 6500 ft
2019/08/25 17:55 KHTO 251755Z AUTO 05008G18KT 020V080 10SM BKN020 OVC065 20/15 A3025 RMK AO2 T01990150 10215 20179
 
KFOK - Westhampton Beac, New York, USA
Distance from station: S 63mi, 102km
Updated: Sun, 25-Aug-2019 1:53pm EDT
Partly cloudy
Partly cloudy
 Wind from ENE
Wind: ENE 16 mph , 26 km/h, Gust: 26 mph , 43 km/h
Temperature: 73°F , 23°C
Dew Point: 57°F , 14°C
Humidity: 57%
Barometer: 30.26 inHg , 1024.7 hPa
Clouds: Partly cloudy
Visibility: 10 miles , 16 km
Cloud details: Few Clouds 2700 ft
Partly cloudy 3300 ft
2019/08/25 17:53 KFOK 251753Z 06014G23KT 10SM FEW027 SCT033 23/14 A3026 RMK AO2 PK WND 03026/1708 SLP247 T02280144 10233 20183 56006
KMTP - Montauk, New York, USA
Distance from station: SE 64mi, 104km
Updated: Sun, 25-Aug-2019 1:54pm EDT

 Wind from NE
Wind: NE 9 mph , 15 km/h, Gust: 18 mph , 30 km/h
Temperature: 70°F , 21°C
Dew Point: 61°F , 16°C
Humidity: 73%
Barometer: 30.27 inHg , 1025.1 hPa
2019/08/25 17:54 KMTP 251754Z AUTO 04008G16KT 21/16 A3027 RMK AO1 SLP249 T02110156 10217 20189 58005